createdAt,value
2022-11-26T00:02:17.571Z,102207.75
2022-11-26T00:04:44.509Z,102205.25
2022-11-26T00:07:12.704Z,102203.88
2022-11-26T00:09:40.072Z,102201.06
2022-11-26T00:12:15.671Z,102200.78
2022-11-26T00:14:42.318Z,102198.56
2022-11-26T00:17:11.994Z,102198.84
2022-11-26T00:19:38.759Z,102195.53
2022-11-26T00:22:05.894Z,102188.50
2022-11-26T00:24:32.670Z,102191.59
2022-11-26T00:27:00.227Z,102196.69
2022-11-26T00:29:26.926Z,102191.38
2022-11-26T00:31:53.736Z,102192.50
2022-11-26T00:34:20.493Z,102209.34
2022-11-26T00:36:48.533Z,102203.44
2022-11-26T00:39:19.289Z,102200.66
2022-11-26T00:41:48.164Z,102195.06
2022-11-26T00:44:17.981Z,102196.22
2022-11-26T00:46:44.931Z,102198.19
2022-11-26T00:49:11.658Z,102202.97
2022-11-26T00:51:38.783Z,102202.19
2022-11-26T00:54:06.645Z,102203.31
2022-11-26T00:56:37.794Z,102204.47
2022-11-26T00:59:05.339Z,102208.09
2022-11-26T01:01:33.187Z,102212.03
2022-11-26T01:04:00.077Z,102206.75
2022-11-26T01:06:31.525Z,102213.47
2022-11-26T01:08:58.459Z,102207.31
2022-11-26T01:11:25.335Z,102216.59
2022-11-26T01:13:53.228Z,102210.13
2022-11-26T01:16:22.721Z,102210.41
2022-11-26T01:18:50.658Z,102207.88
2022-11-26T01:21:17.901Z,102207.34
2022-11-26T01:23:45.100Z,102213.50
2022-11-26T01:26:16.604Z,102213.78
2022-11-26T01:28:43.629Z,102214.91
2022-11-26T01:31:18.783Z,102220.84
2022-11-26T01:33:45.668Z,102216.59
2022-11-26T01:36:19.907Z,102201.97
2022-11-26T01:38:46.666Z,102201.44
2022-11-26T01:41:19.719Z,102203.94
2022-11-26T01:43:48.450Z,102203.69
2022-11-26T01:46:16.499Z,102211.84
2022-11-26T01:48:44.160Z,102217.16
2022-11-26T01:51:12.267Z,102216.88
2022-11-26T01:53:41.019Z,102211.00
2022-11-26T01:56:14.505Z,102202.56
2022-11-26T01:58:44.062Z,102195.56
2022-11-26T02:01:11.235Z,102208.75
2022-11-26T02:03:41.477Z,102205.06
2022-11-26T02:06:12.582Z,102204.84
2022-11-26T02:08:39.813Z,102208.50
2022-11-26T02:11:17.075Z,102203.72
2022-11-26T02:13:44.976Z,102209.59
2022-11-26T02:16:19.083Z,102217.19
2022-11-26T02:18:53.405Z,102218.31
2022-11-26T02:21:26.662Z,102207.88
2022-11-26T02:24:01.176Z,102212.13
2022-11-26T02:26:29.254Z,102214.34
2022-11-26T02:28:57.120Z,102220.28
2022-11-26T02:31:27.659Z,102233.75
2022-11-26T02:33:58.353Z,102224.78
2022-11-26T02:36:32.744Z,102227.84
2022-11-26T02:39:10.904Z,102230.94
2022-11-26T02:41:48.047Z,102228.69
2022-11-26T02:44:20.965Z,102228.13
2022-11-26T02:46:51.819Z,102231.50
2022-11-26T02:49:27.887Z,102233.19
2022-11-26T02:52:00.877Z,102228.13
2022-11-26T02:54:35.549Z,102230.66
2022-11-26T02:57:05.284Z,102234.31
2022-11-26T02:59:35.113Z,102235.72
2022-11-26T03:02:03.635Z,102242.44
2022-11-26T03:04:37.831Z,102240.75
2022-11-26T03:07:05.945Z,102247.78
2022-11-26T03:09:35.965Z,102238.53
2022-11-26T03:12:06.444Z,102235.97
2022-11-26T03:14:38.499Z,102239.06
2022-11-26T03:17:05.801Z,102246.66
2022-11-26T03:19:32.932Z,102240.47
2022-11-26T03:22:01.349Z,102237.94
2022-11-26T03:24:28.635Z,102233.47
2022-11-26T03:26:56.325Z,102232.63
2022-11-26T03:29:23.650Z,102235.13
2022-11-26T03:31:51.517Z,102234.56
2022-11-26T03:34:18.535Z,102237.09
2022-11-26T03:36:45.544Z,102224.47
2022-11-26T03:39:12.559Z,102227.84
2022-11-26T03:41:39.537Z,102227.84
2022-11-26T03:44:06.554Z,102224.44
2022-11-26T03:46:33.560Z,102223.34
2022-11-26T03:49:00.566Z,102213.22
2022-11-26T03:51:27.623Z,102215.19
2022-11-26T03:53:54.580Z,102208.72
2022-11-26T03:56:21.598Z,102222.75
2022-11-26T03:58:48.576Z,102223.91
2022-11-26T04:01:15.604Z,102209.88
2022-11-26T04:03:42.928Z,102215.47
2022-11-26T04:06:10.405Z,102213.22
2022-11-26T04:08:37.407Z,102222.47
2022-11-26T04:11:04.411Z,102231.47
2022-11-26T04:13:32.323Z,102237.09
2022-11-26T04:15:59.537Z,102235.66
2022-11-26T04:18:26.727Z,102237.63
2022-11-26T04:20:54.074Z,102223.59
2022-11-26T04:23:22.007Z,102224.97
2022-11-26T04:25:49.602Z,102216.81
2022-11-26T04:28:16.583Z,102220.19
2022-11-26T04:30:44.484Z,102211.78
2022-11-26T04:33:12.071Z,102210.09
2022-11-26T04:35:39.127Z,102212.34
2022-11-26T04:38:06.599Z,102219.06
2022-11-26T04:40:34.008Z,102216.25
2022-11-26T04:43:01.745Z,102219.91
2022-11-26T04:45:29.063Z,102217.09
2022-11-26T04:47:56.340Z,102215.41
2022-11-26T04:50:23.477Z,102204.72
2022-11-26T04:52:51.227Z,102205.00
2022-11-26T04:55:18.668Z,102206.97
2022-11-26T04:57:49.271Z,102212.03
2022-11-26T05:00:20.738Z,102207.78
2022-11-26T05:02:48.607Z,102210.00
2022-11-26T05:05:16.142Z,102220.97
2022-11-26T05:07:43.521Z,102229.38
2022-11-26T05:10:10.996Z,102224.28
2022-11-26T05:12:38.383Z,102227.94
2022-11-26T05:15:06.003Z,102223.75
2022-11-26T05:17:33.405Z,102223.75
2022-11-26T05:20:00.523Z,102227.66
2022-11-26T05:22:27.880Z,102225.97
2022-11-26T05:24:54.860Z,102233.00
2022-11-26T05:27:21.878Z,102228.47
2022-11-26T05:29:48.841Z,102233.50
2022-11-26T05:32:16.487Z,102232.97
2022-11-26T05:34:43.438Z,102234.91
2022-11-26T05:37:10.400Z,102230.69
2022-11-26T05:39:37.387Z,102232.94
2022-11-26T05:42:08.958Z,102217.47
2022-11-26T05:44:36.970Z,102207.94
2022-11-26T05:47:04.423Z,102210.22
2022-11-26T05:49:31.367Z,102208.50
2022-11-26T05:51:58.359Z,102213.53
2022-11-26T05:54:25.403Z,102221.94
2022-11-26T05:56:58.472Z,102224.22
2022-11-26T05:59:27.083Z,102229.53
2022-11-26T06:01:54.132Z,102229.22
2022-11-26T06:04:21.260Z,102225.31
2022-11-26T06:06:48.224Z,102227.53
2022-11-26T06:09:15.398Z,102226.72
2022-11-26T06:11:43.553Z,102226.72
2022-11-26T06:14:10.923Z,102241.00
2022-11-26T06:16:38.747Z,102243.22
2022-11-26T06:19:07.163Z,102247.44
2022-11-26T06:21:34.891Z,102235.38
2022-11-26T06:24:02.127Z,102236.22
2022-11-26T06:26:29.886Z,102229.75
2022-11-26T06:28:57.049Z,102226.97
2022-11-26T06:31:25.074Z,102227.22
2022-11-26T06:33:54.822Z,102226.66
2022-11-26T06:36:22.621Z,102223.84
2022-11-26T06:38:50.681Z,102223.28
2022-11-26T06:41:17.893Z,102221.56
2022-11-26T06:43:45.329Z,102230.00
2022-11-26T06:46:14.760Z,102229.19
2022-11-26T06:48:43.123Z,102234.47
2022-11-26T06:51:11.990Z,102237.00
2022-11-26T06:53:39.518Z,102238.13
2022-11-26T06:56:07.978Z,102241.22
2022-11-26T06:58:35.085Z,102242.03
2022-11-26T07:01:10.337Z,102237.56
2022-11-26T07:03:39.220Z,102252.94
2022-11-26T07:06:06.772Z,102254.91
2022-11-26T07:08:34.636Z,102259.38
2022-11-26T07:11:04.652Z,102253.50
2022-11-26T07:13:31.595Z,102253.75
2022-11-26T07:16:03.803Z,102258.53
2022-11-26T07:18:33.126Z,102252.06
2022-11-26T07:21:06.371Z,102243.94
2022-11-26T07:23:34.321Z,102250.91
2022-11-26T07:26:03.833Z,102250.91
2022-11-26T07:28:33.073Z,102255.41
2022-11-26T07:31:01.292Z,102248.41
2022-11-26T07:33:28.723Z,102237.19
2022-11-26T07:36:00.169Z,102245.03
2022-11-26T07:38:33.510Z,102229.31
2022-11-26T07:41:08.818Z,102219.50
2022-11-26T07:43:38.185Z,102226.78
2022-11-26T07:46:09.361Z,102240.22
2022-11-26T07:48:38.955Z,102233.50
2022-11-26T07:51:08.343Z,102223.41
2022-11-26T07:53:38.091Z,102226.47
2022-11-26T07:56:06.540Z,102218.06
2022-11-26T07:58:38.165Z,102220.03
2022-11-26T08:01:10.740Z,102213.84
2022-11-26T08:03:43.922Z,102218.59
2022-11-26T08:06:18.349Z,102223.38
2022-11-26T08:08:45.961Z,102226.47
2022-11-26T08:11:15.677Z,102218.31
2022-11-26T08:13:43.280Z,102223.91
2022-11-26T08:16:10.725Z,102228.09
2022-11-26T08:18:38.176Z,102226.13
2022-11-26T08:21:05.560Z,102221.38
2022-11-26T08:23:32.905Z,102224.47
2022-11-26T08:26:22.767Z,102224.69
2022-11-26T08:28:51.437Z,102224.69
2022-11-26T08:31:18.647Z,102221.03
2022-11-26T08:36:12.528Z,102230.56
2022-11-26T08:38:39.781Z,102215.44
2022-11-26T08:41:08.998Z,102221.66
2022-11-26T08:44:04.565Z,102221.13
2022-11-26T08:46:23.904Z,102208.47
2022-11-26T08:48:50.984Z,102218.25
2022-11-26T08:51:18.011Z,102211.53
2022-11-26T08:53:46.240Z,102210.09
2022-11-26T08:56:14.337Z,102207.00
2022-11-26T08:58:42.750Z,102207.00
2022-11-26T09:01:10.677Z,102194.09
2022-11-26T09:03:38.258Z,102205.28
2022-11-26T09:06:06.721Z,102198.84
2022-11-26T09:08:45.270Z,102209.25
2022-11-26T09:11:12.710Z,102223.50
2022-11-26T09:16:06.696Z,102228.84
2022-11-26T09:18:33.862Z,102224.88
2022-11-26T09:21:02.716Z,102234.41
2022-11-26T09:23:29.697Z,102230.22
2022-11-26T09:25:56.707Z,102224.88
2022-11-26T09:28:55.311Z,102220.72
2022-11-26T09:31:22.497Z,102226.06
2022-11-26T09:33:49.590Z,102238.13
2022-11-26T09:36:17.582Z,102229.97
2022-11-26T09:38:45.077Z,102224.06
2022-11-26T09:41:14.949Z,102232.72
2022-11-26T09:43:47.206Z,102233.84
2022-11-26T09:46:17.953Z,102235.22
2022-11-26T09:48:45.222Z,102234.69
2022-11-26T09:51:14.055Z,102226.53
2022-11-26T09:53:46.499Z,102224.63
2022-11-26T09:56:15.275Z,102217.06
2022-11-26T09:58:49.523Z,102210.31
2022-11-26T10:01:23.553Z,102208.38
2022-11-26T10:04:12.863Z,102218.88
2022-11-26T10:06:58.458Z,102223.38
2022-11-26T10:10:15.279Z,102218.06
2022-11-26T10:13:03.542Z,102228.47
2022-11-26T10:15:39.865Z,102223.69
2022-11-26T10:18:10.126Z,102224.28
2022-11-26T10:20:40.150Z,102227.13
2022-11-26T10:23:10.259Z,102220.97
2022-11-26T10:25:41.285Z,102211.19
2022-11-26T10:28:15.233Z,102209.50
2022-11-26T10:30:42.694Z,102205.03
2022-11-26T10:33:14.905Z,102194.97
2022-11-26T10:35:43.201Z,102192.19
2022-11-26T10:38:11.175Z,102187.72
2022-11-26T10:40:38.235Z,102178.75
2022-11-26T10:43:08.668Z,102185.47
2022-11-26T10:45:37.025Z,102173.44
2022-11-26T10:48:07.102Z,102165.03
2022-11-26T10:50:51.001Z,102164.50
2022-11-26T10:53:21.519Z,102174.91
2022-11-26T10:55:48.959Z,102160.03
2022-11-26T10:58:18.030Z,102160.31
2022-11-26T11:00:45.535Z,102156.69
2022-11-26T11:03:15.578Z,102162.63
2022-11-26T11:05:43.860Z,102162.63
2022-11-26T11:08:13.939Z,102161.22
2022-11-26T11:10:53.208Z,102166.00
2022-11-26T11:13:20.275Z,102169.94
2022-11-26T11:15:47.324Z,102168.56
2022-11-26T11:18:17.409Z,102166.00
2022-11-26T11:20:52.750Z,102168.25
2022-11-26T11:23:34.791Z,102162.09
2022-11-26T11:26:16.204Z,102171.66
2022-11-26T11:28:47.107Z,102166.59
2022-11-26T11:31:15.809Z,102158.72
2022-11-26T11:33:43.775Z,102155.66
2022-11-26T11:36:13.868Z,102150.59
2022-11-26T11:38:44.996Z,102149.75
2022-11-26T11:41:16.397Z,102159.28
2022-11-26T11:43:45.754Z,102146.94
2022-11-26T11:46:13.862Z,102144.97
2022-11-26T11:48:48.164Z,102140.19
2022-11-26T11:51:24.279Z,102136.28
2022-11-26T11:54:03.615Z,102127.53
2022-11-26T11:56:35.387Z,102131.78
2022-11-26T11:59:03.365Z,102123.03
2022-11-26T12:01:39.513Z,102118.00
2022-11-26T12:04:18.105Z,102117.72
2022-11-26T12:06:47.927Z,102117.16
2022-11-26T12:09:15.888Z,102110.09
2022-11-26T12:11:42.992Z,102103.63
2022-11-26T12:14:13.443Z,102103.38
2022-11-26T12:16:42.817Z,102105.59
2022-11-26T12:19:18.641Z,102102.25
2022-11-26T12:21:48.685Z,102102.53
2022-11-26T12:24:24.615Z,102101.97
2022-11-26T12:26:55.835Z,102102.78
2022-11-26T12:29:32.601Z,102101.38
2022-11-26T12:32:03.143Z,102111.75
2022-11-26T12:34:39.994Z,102104.72
2022-11-26T12:37:18.727Z,102101.06
2022-11-26T12:39:53.162Z,102103.59
2022-11-26T12:42:30.662Z,102099.94
2022-11-26T12:45:03.240Z,102094.25
2022-11-26T12:47:41.400Z,102091.16
2022-11-26T12:50:17.547Z,102095.41
2022-11-26T12:52:51.656Z,102078.22
2022-11-26T12:55:22.357Z,102083.56
2022-11-26T12:57:50.442Z,102091.72
2022-11-26T13:00:26.088Z,102068.38
2022-11-26T13:02:54.542Z,102073.16
2022-11-26T13:05:27.342Z,102068.38
2022-11-26T13:08:05.805Z,102065.25
2022-11-26T13:10:34.687Z,102064.13
2022-11-26T13:13:08.030Z,102072.28
2022-11-26T13:15:40.987Z,102063.00
2022-11-26T13:18:14.385Z,102068.63
2022-11-26T13:20:52.352Z,102066.66
2022-11-26T13:23:29.502Z,102066.34
2022-11-26T13:26:05.243Z,102063.25
2022-11-26T13:28:32.480Z,102060.19
2022-11-26T13:30:59.735Z,102059.06
2022-11-26T13:33:39.566Z,102052.00
2022-11-26T13:36:07.751Z,102050.03
2022-11-26T13:38:35.763Z,102057.34
2022-11-26T13:41:15.779Z,102048.31
2022-11-26T13:43:46.014Z,102046.34
2022-11-26T13:46:22.722Z,102042.69
2022-11-26T13:48:58.745Z,102039.59
2022-11-26T13:51:25.860Z,102035.94
2022-11-26T13:53:52.987Z,102028.03
2022-11-26T13:56:22.928Z,102024.38
2022-11-26T13:58:53.200Z,102032.81
2022-11-26T14:01:29.999Z,102030.00
2022-11-26T14:03:58.034Z,102024.38
2022-11-26T14:06:25.026Z,102021.56
2022-11-26T14:08:53.362Z,102026.38
2022-11-26T14:11:29.742Z,102029.19
2022-11-26T14:14:05.684Z,102017.38
2022-11-26T14:16:52.396Z,102016.53
2022-11-26T14:19:19.419Z,102001.09
2022-11-26T14:21:55.574Z,102005.03
2022-11-26T14:24:42.400Z,102003.59
2022-11-26T14:27:09.417Z,101999.97
2022-11-26T14:29:36.433Z,101987.03
2022-11-26T14:32:03.513Z,101987.31
2022-11-26T14:34:39.058Z,101976.06
2022-11-26T14:37:13.853Z,101973.53
2022-11-26T14:39:40.832Z,101983.41
2022-11-26T14:42:14.791Z,101986.81
2022-11-26T14:44:41.853Z,101985.41
2022-11-26T14:47:12.095Z,101985.41
2022-11-26T14:49:41.129Z,101985.16
2022-11-26T14:52:17.687Z,101965.47
2022-11-26T14:54:46.806Z,101977.00
2022-11-26T14:57:16.289Z,101973.09
2022-11-26T14:59:58.791Z,101961.31
2022-11-26T15:02:26.859Z,101961.59
2022-11-26T15:05:02.206Z,101959.91
2022-11-26T15:07:29.835Z,101953.75
2022-11-26T15:10:07.036Z,101958.53
2022-11-26T15:12:35.847Z,101950.09
2022-11-26T15:15:04.119Z,101947.28
2022-11-26T15:17:32.734Z,101955.41
2022-11-26T15:20:02.316Z,101954.28
2022-11-26T15:22:39.480Z,101949.22
2022-11-26T15:25:12.807Z,101952.28
2022-11-26T15:27:41.519Z,101946.38
2022-11-26T15:30:18.070Z,101943.25
2022-11-26T15:32:45.034Z,101933.69
2022-11-26T15:35:14.707Z,101932.28
2022-11-26T15:37:41.639Z,101934.78
2022-11-26T15:40:21.466Z,101925.22
2022-11-26T15:42:49.145Z,101921.56
2022-11-26T15:45:17.526Z,101908.06
2022-11-26T15:47:47.207Z,101914.22
2022-11-26T15:50:23.728Z,101903.81
2022-11-26T15:52:50.705Z,101904.09
2022-11-26T15:55:22.777Z,101889.53
2022-11-26T15:57:51.190Z,101893.19
2022-11-26T16:00:27.721Z,101888.41
2022-11-26T16:02:54.904Z,101887.22
2022-11-26T16:05:23.286Z,101882.44
2022-11-26T16:07:58.650Z,101874.34
2022-11-26T16:10:26.939Z,101863.38
2022-11-26T16:13:03.722Z,101868.41
2022-11-26T16:15:30.797Z,101866.13
2022-11-26T16:17:58.072Z,101863.63
2022-11-26T16:20:27.471Z,101860.28
2022-11-26T16:22:57.301Z,101865.63
2022-11-26T16:25:25.984Z,101851.56
2022-11-26T16:28:02.774Z,101845.13
2022-11-26T16:30:29.772Z,101842.59
2022-11-26T16:32:56.744Z,101831.34
2022-11-26T16:35:44.565Z,101828.50
2022-11-26T16:38:19.454Z,101824.00
2022-11-26T16:40:46.626Z,101818.09
2022-11-26T16:43:14.655Z,101816.16
2022-11-26T16:45:41.870Z,101809.97
2022-11-26T16:48:21.579Z,101806.31
2022-11-26T16:50:48.573Z,101809.69
2022-11-26T16:53:15.759Z,101799.44
2022-11-26T16:55:42.694Z,101802.19
2022-11-26T16:58:16.727Z,101803.72
2022-11-26T17:00:43.667Z,101807.88
2022-11-26T17:03:14.327Z,101813.81
2022-11-26T17:05:41.981Z,101815.75
2022-11-26T17:08:11.726Z,101814.97
2022-11-26T17:10:39.186Z,101812.91
2022-11-26T17:13:06.150Z,101812.00
2022-11-26T17:15:33.111Z,101821.06
2022-11-26T17:18:10.442Z,101823.97
2022-11-26T17:20:37.759Z,101834.75
2022-11-26T17:23:05.161Z,101832.00
2022-11-26T17:25:32.302Z,101839.63
2022-11-26T17:27:59.341Z,101838.84
2022-11-26T17:30:26.559Z,101829.31
2022-11-26T17:32:53.637Z,101827.75
2022-11-26T17:35:20.678Z,101817.88
2022-11-26T17:37:48.002Z,101808.94
2022-11-26T17:40:18.100Z,101813.72
2022-11-26T17:42:45.181Z,101801.09
2022-11-26T17:45:12.883Z,101796.06
2022-11-26T17:47:40.073Z,101795.81
2022-11-26T17:50:08.499Z,101788.81
2022-11-26T17:52:35.680Z,101799.53
2022-11-26T17:55:02.753Z,101791.50
2022-11-26T17:57:29.859Z,101798.28
2022-11-26T17:59:57.019Z,101787.56
2022-11-26T18:02:24.120Z,101793.19
2022-11-26T18:04:51.039Z,101792.03
2022-11-26T18:07:19.113Z,101798.75
2022-11-26T18:09:46.956Z,101794.28
2022-11-26T18:12:21.580Z,101793.72
2022-11-26T18:14:51.739Z,101797.97
2022-11-26T18:17:19.577Z,101798.28
2022-11-26T18:19:46.836Z,101784.19
2022-11-26T18:22:16.803Z,101785.03
2022-11-26T18:24:50.985Z,101780.78
2022-11-26T18:27:21.864Z,101762.75
2022-11-26T18:29:49.205Z,101760.78
2022-11-26T18:32:17.031Z,101761.63
2022-11-26T18:34:44.535Z,101752.06
2022-11-26T18:37:13.046Z,101732.34
2022-11-26T18:39:40.631Z,101748.41
2022-11-26T18:44:55.122Z,101743.28
2022-11-26T18:47:22.175Z,101728.94
2022-11-26T18:49:49.615Z,101744.75
2022-11-26T18:52:16.838Z,101747.84
2022-11-26T18:54:43.961Z,101745.34
2022-11-26T18:57:10.900Z,101743.97
2022-11-26T18:59:38.348Z,101737.81
2022-11-26T19:02:05.723Z,101735.28
2022-11-26T19:04:33.402Z,101721.25
2022-11-26T19:07:00.480Z,101717.88
2022-11-26T19:09:27.618Z,101724.09
2022-11-26T19:11:55.006Z,101717.41
2022-11-26T19:14:22.465Z,101730.63
2022-11-26T19:16:51.260Z,101714.88
2022-11-26T19:19:19.897Z,101709.84
2022-11-26T19:21:47.344Z,101694.94
2022-11-26T19:24:15.420Z,101705.38
2022-11-26T19:26:42.678Z,101705.38
2022-11-26T19:29:11.410Z,101696.41
2022-11-26T19:31:40.287Z,101688.53
2022-11-26T19:34:10.575Z,101683.53
2022-11-26T19:36:37.851Z,101673.16
2022-11-26T19:39:05.585Z,101667.59
2022-11-26T19:41:32.923Z,101666.53
2022-11-26T19:44:01.530Z,101660.06
2022-11-26T19:46:28.847Z,101660.06
2022-11-26T19:48:56.086Z,101654.19
2022-11-26T19:51:24.558Z,101648.00
2022-11-26T19:53:52.495Z,101643.56
2022-11-26T19:56:21.552Z,101632.88
2022-11-26T19:58:50.365Z,101626.19
2022-11-26T20:01:17.846Z,101628.16
2022-11-26T20:03:45.076Z,101615.53
2022-11-26T20:06:14.531Z,101608.53
2022-11-26T20:08:41.595Z,101605.19
2022-11-26T20:11:09.880Z,101609.13
2022-11-26T20:13:37.287Z,101598.78
2022-11-26T20:16:06.296Z,101587.81
2022-11-26T20:18:34.105Z,101597.09
2022-11-26T20:21:02.350Z,101585.06
2022-11-26T20:23:29.569Z,101581.75
2022-11-26T20:25:56.922Z,101589.31
2022-11-26T20:28:24.194Z,101582.63
2022-11-26T20:30:52.814Z,101576.44
2022-11-26T20:33:22.850Z,101587.97
2022-11-26T20:35:50.402Z,101571.69
2022-11-26T20:38:17.650Z,101573.13
2022-11-26T20:40:45.127Z,101556.03
2022-11-26T20:43:12.187Z,101552.38
2022-11-26T20:45:39.418Z,101554.97
2022-11-26T20:48:07.187Z,101553.56
2022-11-26T20:50:34.153Z,101550.25
2022-11-26T20:53:01.154Z,101548.00
2022-11-26T20:55:28.103Z,101529.47
2022-11-26T20:57:55.187Z,101539.63
2022-11-26T21:00:27.216Z,101544.72
2022-11-26T21:02:54.651Z,101546.69
2022-11-26T21:05:23.396Z,101530.44
2022-11-26T21:07:51.497Z,101538.03
2022-11-26T21:10:18.771Z,101527.34
2022-11-26T21:12:45.605Z,101529.94
2022-11-26T21:15:12.452Z,101519.81
2022-11-26T21:17:39.433Z,101521.25
2022-11-26T21:20:06.860Z,101522.38
2022-11-26T21:22:33.767Z,101512.59
2022-11-26T21:25:00.795Z,101512.03
2022-11-26T21:27:27.732Z,101499.13
2022-11-26T21:29:54.654Z,101504.22
2022-11-26T21:32:21.511Z,101507.63
2022-11-26T21:34:48.321Z,101501.47
2022-11-26T21:37:15.241Z,101500.09
2022-11-26T21:39:42.270Z,101489.16
2022-11-26T21:42:09.847Z,101494.22
2022-11-26T21:44:36.820Z,101511.94
2022-11-26T21:47:04.044Z,101508.00
2022-11-26T21:49:31.846Z,101497.91
2022-11-26T21:51:59.210Z,101501.03
2022-11-26T21:54:26.750Z,101493.16
2022-11-26T21:56:53.776Z,101492.31
2022-11-26T21:59:20.618Z,101499.38
2022-11-26T22:01:47.601Z,101494.38
2022-11-26T22:04:17.926Z,101489.03
2022-11-26T22:06:45.615Z,101487.91
2022-11-26T22:09:13.121Z,101492.44
2022-11-26T22:11:40.849Z,101484.28
2022-11-26T22:14:08.377Z,101467.19
2022-11-26T22:16:35.597Z,101473.69
2022-11-26T22:19:02.662Z,101468.91
2022-11-26T22:21:31.284Z,101463.31
2022-11-26T22:23:59.158Z,101466.44
2022-11-26T22:26:26.309Z,101452.97
2022-11-26T22:28:53.182Z,101449.06
2022-11-26T22:31:28.868Z,101448.50
2022-11-26T22:33:57.819Z,101441.22
2022-11-26T22:36:25.035Z,101431.44
2022-11-26T22:38:52.110Z,101442.09
2022-11-26T22:41:19.216Z,101448.84
2022-11-26T22:43:46.068Z,101441.00
2022-11-26T22:46:13.087Z,101429.28
2022-11-26T22:48:40.520Z,101430.38
2022-11-26T22:51:07.844Z,101420.56
2022-11-26T22:53:34.740Z,101418.38
2022-11-26T22:56:03.249Z,101423.69
2022-11-26T22:58:30.926Z,101423.13
2022-11-26T23:00:59.987Z,101443.88
2022-11-26T23:03:27.741Z,101440.84
2022-11-26T23:05:55.077Z,101435.22
2022-11-26T23:08:21.895Z,101446.72
2022-11-26T23:10:48.895Z,101435.81
2022-11-26T23:13:16.075Z,101441.75
2022-11-26T23:15:44.905Z,101432.81
2022-11-26T23:18:12.672Z,101422.72
2022-11-26T23:20:39.635Z,101425.56
2022-11-26T23:23:06.484Z,101421.03
2022-11-26T23:25:33.244Z,101414.91
2022-11-26T23:27:59.979Z,101407.28
2022-11-26T23:30:27.220Z,101405.38
2022-11-26T23:32:53.949Z,101397.56
2022-11-26T23:35:20.759Z,101401.19
2022-11-26T23:37:47.533Z,101384.97
2022-11-26T23:40:14.600Z,101388.91
2022-11-26T23:42:41.439Z,101386.09
2022-11-26T23:45:09.029Z,101389.50
2022-11-26T23:47:36.709Z,101377.16
2022-11-26T23:50:03.854Z,101384.44
2022-11-26T23:52:30.589Z,101386.97
2022-11-26T23:54:57.425Z,101371.28
2022-11-26T23:57:24.300Z,101384.75
2022-11-26T23:59:50.984Z,101370.75
